Time;durP1;ratioP1;P1;durP2;ratioP2;P2;SDS_P1;SDS_P2;PMS_P1;PMS_P2;Temp;Humidity;BMP_temperature;BMP_pressure;BME280_temperature;BME280_humidity;BME280_pressure;Samples;Min_cycle;Max_cycle;Signal;HPM_P1;HPM_P2
2022/02/21 00:00:30;;;;;;;;;;;22.10;28.50;;;;;;481966;247;2134;-73
2022/02/21 00:02:31;;;;;;;;;;;22.20;28.50;;;;;;481985;246;1138;-73
2022/02/21 00:04:33;;;;;;;;;;;22.10;28.50;;;;;;482060;246;1100;-73
2022/02/21 00:06:34;;;;;;;;;;;22.10;28.50;;;;;;481935;246;1333;-73
2022/02/21 00:08:35;;;;;;;;;;;22.00;28.50;;;;;;481896;247;1167;-73
2022/02/21 00:10:36;;;;;;;;;;;22.10;28.60;;;;;;482087;246;1049;-73
2022/02/21 00:12:38;;;;;;;;;;;22.10;28.40;;;;;;481993;247;1270;-73
2022/02/21 00:14:39;;;;;;;;;;;22.00;28.50;;;;;;482085;246;968;-73
2022/02/21 00:16:40;;;;;;;;;;;22.00;28.60;;;;;;481927;246;1136;-73
2022/02/21 00:18:42;;;;;;;;;;;21.90;28.60;;;;;;481953;247;1053;-73
2022/02/21 00:20:43;;;;;;;;;;;22.00;28.60;;;;;;481986;246;2118;-73
2022/02/21 00:22:45;;;;;;;;;;;22.00;28.60;;;;;;482141;246;1174;-73
2022/02/21 00:24:46;;;;;;;;;;;21.90;28.60;;;;;;481999;247;1043;-73
2022/02/21 00:26:47;;;;;;;;;;;22.00;28.60;;;;;;481850;247;1352;-73
2022/02/21 00:28:49;;;;;;;;;;;21.90;28.60;;;;;;481860;246;1094;-73
2022/02/21 00:30:50;;;;;;;;;;;22.00;28.60;;;;;;481995;246;1135;-73
2022/02/21 00:32:51;;;;;;;;;;;22.00;28.60;;;;;;481999;247;1077;-73
2022/02/21 00:34:53;;;;;;;;;;;22.00;28.60;;;;;;482007;247;1071;-73
2022/02/21 00:36:54;;;;;;;;;;;22.10;28.60;;;;;;481914;247;1224;-73
2022/02/21 00:38:55;;;;;;;;;;;22.00;28.60;;;;;;482016;246;1185;-73
2022/02/21 00:40:57;;;;;;;;;;;22.00;28.70;;;;;;481898;247;2143;-73
2022/02/21 00:42:58;;;;;;;;;;;22.00;28.70;;;;;;481995;246;1049;-73
2022/02/21 00:45:00;;;;;;;;;;;22.00;28.70;;;;;;482002;246;1159;-73
2022/02/21 00:47:01;;;;;;;;;;;22.00;28.70;;;;;;481887;247;1413;-73
2022/02/21 00:49:03;;;;;;;;;;;22.00;28.70;;;;;;482022;246;1053;-73
2022/02/21 00:51:03;;;;;;;;;;;22.00;28.70;;;;;;482007;247;1460;-73
2022/02/21 00:53:05;;;;;;;;;;;22.00;28.80;;;;;;482230;246;1185;-73
2022/02/21 00:55:06;;;;;;;;;;;21.90;28.70;;;;;;481982;246;1121;-73
2022/02/21 00:57:07;;;;;;;;;;;22.00;28.70;;;;;;481881;246;1141;-73
2022/02/21 00:59:09;;;;;;;;;;;22.00;28.70;;;;;;481936;246;986;-73
2022/02/21 01:01:10;;;;;;;;;;;22.00;28.70;;;;;;481966;247;2193;-73
2022/02/21 01:03:11;;;;;;;;;;;22.00;28.70;;;;;;482009;246;1082;-73
2022/02/21 01:05:13;;;;;;;;;;;22.00;28.60;;;;;;482007;246;1247;-73
2022/02/21 01:07:14;;;;;;;;;;;22.00;28.70;;;;;;473977;251;1154;-73
2022/02/21 01:09:15;;;;;;;;;;;22.10;28.60;;;;;;482137;246;1081;-73
2022/02/21 01:11:18;;;;;;;;;;;22.00;28.60;;;;;;482131;246;1117;-73
2022/02/21 01:13:18;;;;;;;;;;;22.00;28.70;;;;;;482125;246;1436;-73
2022/02/21 01:15:19;;;;;;;;;;;22.10;28.60;;;;;;482019;246;1154;-73
2022/02/21 01:17:22;;;;;;;;;;;22.00;28.60;;;;;;481827;246;1157;-73
2022/02/21 01:19:22;;;;;;;;;;;22.10;28.70;;;;;;481925;247;1581;-73
2022/02/21 01:21:23;;;;;;;;;;;22.10;28.70;;;;;;481886;247;2204;-73
2022/02/21 01:23:24;;;;;;;;;;;22.10;28.60;;;;;;482008;246;1133;-73
2022/02/21 01:25:26;;;;;;;;;;;22.10;28.70;;;;;;482024;246;982;-73
2022/02/21 01:27:27;;;;;;;;;;;22.10;28.60;;;;;;481801;247;1138;-73
2022/02/21 01:29:28;;;;;;;;;;;22.10;28.60;;;;;;481972;246;1059;-73
2022/02/21 01:31:30;;;;;;;;;;;22.00;28.60;;;;;;481915;247;1345;-73
2022/02/21 01:33:31;;;;;;;;;;;22.00;28.60;;;;;;481950;246;1529;-73
2022/02/21 01:35:32;;;;;;;;;;;22.00;28.60;;;;;;482091;246;1364;-73
2022/02/21 01:37:34;;;;;;;;;;;22.00;28.60;;;;;;482066;246;1103;-73
2022/02/21 01:39:35;;;;;;;;;;;22.00;28.60;;;;;;473872;251;1198;-73
2022/02/21 01:41:36;;;;;;;;;;;22.00;28.60;;;;;;481881;247;2131;-73
2022/02/21 01:43:38;;;;;;;;;;;22.00;28.60;;;;;;482250;246;1080;-73
2022/02/21 01:45:39;;;;;;;;;;;22.00;28.60;;;;;;482053;246;1068;-73
2022/02/21 01:47:40;;;;;;;;;;;22.10;28.60;;;;;;481979;247;1152;-73
2022/02/21 01:49:42;;;;;;;;;;;22.00;28.50;;;;;;482017;247;1067;-73
2022/02/21 01:51:43;;;;;;;;;;;22.10;28.50;;;;;;481889;247;1333;-73
2022/02/21 01:53:44;;;;;;;;;;;22.10;28.50;;;;;;481937;247;1365;-73
2022/02/21 01:55:46;;;;;;;;;;;22.10;28.60;;;;;;482004;246;1150;-73
2022/02/21 01:57:48;;;;;;;;;;;22.10;28.50;;;;;;473838;251;1190;-73
2022/02/21 01:59:48;;;;;;;;;;;22.10;28.50;;;;;;481985;246;1364;-73
2022/02/21 02:01:50;;;;;;;;;;;22.00;28.50;;;;;;481825;246;2212;-73
2022/02/21 02:03:51;;;;;;;;;;;22.00;28.50;;;;;;481898;247;1210;-73
2022/02/21 02:05:52;;;;;;;;;;;22.10;28.50;;;;;;481954;246;1179;-73
2022/02/21 02:07:53;;;;;;;;;;;22.10;28.40;;;;;;481905;246;1053;-73
2022/02/21 02:09:55;;;;;;;;;;;22.10;28.50;;;;;;481945;247;1146;-73
2022/02/21 02:11:56;;;;;;;;;;;22.10;28.40;;;;;;482019;246;1223;-73
2022/02/21 02:13:58;;;;;;;;;;;22.10;28.50;;;;;;481969;247;1088;-73
2022/02/21 02:15:59;;;;;;;;;;;22.20;28.40;;;;;;481989;246;1301;-73
2022/02/21 02:18:00;;;;;;;;;;;22.10;28.40;;;;;;481967;246;1141;-73
2022/02/21 02:20:01;;;;;;;;;;;22.00;28.40;;;;;;481981;247;1139;-73
2022/02/21 02:22:03;;;;;;;;;;;22.10;28.50;;;;;;481882;246;2129;-74
2022/02/21 02:24:04;;;;;;;;;;;22.00;28.40;;;;;;481960;247;1090;-73
2022/02/21 02:26:05;;;;;;;;;;;22.00;28.50;;;;;;481880;247;1121;-73
2022/02/21 02:28:07;;;;;;;;;;;22.00;28.50;;;;;;481945;246;1235;-73
2022/02/21 02:30:08;;;;;;;;;;;22.10;28.40;;;;;;481944;247;1034;-73
2022/02/21 02:32:09;;;;;;;;;;;22.10;28.40;;;;;;481831;246;1162;-73
2022/02/21 02:34:11;;;;;;;;;;;22.00;28.40;;;;;;481931;246;1036;-73
2022/02/21 02:36:12;;;;;;;;;;;22.10;28.40;;;;;;482029;246;1178;-73
2022/02/21 02:38:13;;;;;;;;;;;22.10;28.40;;;;;;482075;247;1146;-73
2022/02/21 02:40:15;;;;;;;;;;;22.10;28.40;;;;;;482062;246;1161;-73
2022/02/21 02:42:17;;;;;;;;;;;22.00;28.40;;;;;;481936;247;2145;-73
2022/02/21 02:44:18;;;;;;;;;;;22.10;28.30;;;;;;481954;246;1065;-73
2022/02/21 02:46:19;;;;;;;;;;;22.20;28.30;;;;;;481946;247;1194;-74
2022/02/21 02:48:21;;;;;;;;;;;22.10;28.30;;;;;;481938;247;1208;-73
2022/02/21 02:50:22;;;;;;;;;;;22.10;28.30;;;;;;481956;247;1126;-74
2022/02/21 02:52:23;;;;;;;;;;;22.10;28.30;;;;;;481904;246;1172;-73
2022/02/21 02:54:24;;;;;;;;;;;22.10;28.20;;;;;;481939;247;965;-73
2022/02/21 02:56:26;;;;;;;;;;;22.20;28.20;;;;;;481980;246;1161;-73
2022/02/21 02:58:27;;;;;;;;;;;22.10;28.20;;;;;;473808;251;1242;-73
2022/02/21 03:00:28;;;;;;;;;;;22.00;28.30;;;;;;482005;246;1267;-73
2022/02/21 03:02:30;;;;;;;;;;;22.00;28.30;;;;;;482104;246;2110;-73
2022/02/21 03:04:31;;;;;;;;;;;22.00;28.30;;;;;;482000;247;1093;-73
2022/02/21 03:06:32;;;;;;;;;;;22.00;28.30;;;;;;481938;247;1433;-74
2022/02/21 03:08:34;;;;;;;;;;;22.00;28.30;;;;;;482027;246;1025;-73
2022/02/21 03:10:35;;;;;;;;;;;22.00;28.30;;;;;;482063;247;1109;-73
2022/02/21 03:12:36;;;;;;;;;;;22.00;28.20;;;;;;482067;246;1154;-73
2022/02/21 03:14:38;;;;;;;;;;;22.10;28.10;;;;;;482103;247;1050;-73
2022/02/21 03:16:39;;;;;;;;;;;22.20;28.10;;;;;;482013;246;1216;-73
2022/02/21 03:18:40;;;;;;;;;;;22.20;28.10;;;;;;481931;247;977;-73
2022/02/21 03:20:42;;;;;;;;;;;22.20;28.10;;;;;;481965;247;1067;-73
2022/02/21 03:22:44;;;;;;;;;;;22.20;28.00;;;;;;481901;247;2192;-73
2022/02/21 03:24:45;;;;;;;;;;;22.10;28.00;;;;;;481993;247;1188;-73
2022/02/21 03:26:47;;;;;;;;;;;22.10;28.10;;;;;;481953;247;1129;-73
2022/02/21 03:28:48;;;;;;;;;;;22.10;28.10;;;;;;481944;247;1103;-73
2022/02/21 03:30:49;;;;;;;;;;;22.20;28.00;;;;;;482012;246;1130;-73
2022/02/21 03:32:51;;;;;;;;;;;22.20;28.00;;;;;;481922;247;1114;-73
2022/02/21 03:34:52;;;;;;;;;;;22.10;28.00;;;;;;481967;247;1067;-73
2022/02/21 03:36:53;;;;;;;;;;;22.10;28.00;;;;;;481897;247;1094;-73
2022/02/21 03:38:55;;;;;;;;;;;22.10;28.00;;;;;;481999;246;1053;-73
2022/02/21 03:40:56;;;;;;;;;;;22.10;28.00;;;;;;481892;247;1209;-73
2022/02/21 03:42:58;;;;;;;;;;;22.20;28.00;;;;;;482000;246;2125;-73
2022/02/21 03:44:59;;;;;;;;;;;22.20;28.00;;;;;;481957;246;1051;-73
2022/02/21 03:47:00;;;;;;;;;;;22.00;28.00;;;;;;481943;247;1187;-74
2022/02/21 03:49:01;;;;;;;;;;;22.00;28.10;;;;;;482021;246;1048;-73
2022/02/21 03:51:03;;;;;;;;;;;22.00;28.00;;;;;;481917;247;1327;-74
2022/02/21 03:53:04;;;;;;;;;;;22.00;28.00;;;;;;481925;246;1085;-73
2022/02/21 03:55:05;;;;;;;;;;;22.00;28.00;;;;;;481966;247;1023;-73
2022/02/21 03:57:07;;;;;;;;;;;22.10;28.00;;;;;;481927;247;1187;-73
2022/02/21 03:59:08;;;;;;;;;;;22.10;28.00;;;;;;482038;246;1042;-73
2022/02/21 04:01:09;;;;;;;;;;;22.20;27.90;;;;;;481943;247;1124;-74
2022/02/21 04:03:11;;;;;;;;;;;22.10;27.90;;;;;;482038;246;2196;-73
2022/02/21 04:05:14;;;;;;;;;;;22.10;28.00;;;;;;482013;247;1021;-74
2022/02/21 04:07:13;;;;;;;;;;;22.10;28.00;;;;;;481727;247;1343;-73
2022/02/21 04:09:15;;;;;;;;;;;22.10;28.00;;;;;;482005;246;1136;-74
2022/02/21 04:11:16;;;;;;;;;;;22.10;28.00;;;;;;481911;247;1318;-73
2022/02/21 04:13:17;;;;;;;;;;;22.10;28.00;;;;;;481957;246;1066;-73
2022/02/21 04:15:18;;;;;;;;;;;22.10;28.00;;;;;;481973;247;1034;-73
2022/02/21 04:17:20;;;;;;;;;;;22.10;27.90;;;;;;481889;247;1268;-73
2022/02/21 04:19:21;;;;;;;;;;;22.10;27.90;;;;;;482136;246;1021;-73
2022/02/21 04:21:22;;;;;;;;;;;22.10;27.90;;;;;;481845;247;1316;-73
2022/02/21 04:23:24;;;;;;;;;;;22.10;28.00;;;;;;481990;246;2213;-73
2022/02/21 04:25:25;;;;;;;;;;;22.10;27.90;;;;;;481976;247;949;-73
2022/02/21 04:27:26;;;;;;;;;;;22.20;28.00;;;;;;482055;246;1248;-73
2022/02/21 04:29:28;;;;;;;;;;;22.10;28.00;;;;;;482015;247;1087;-73
2022/02/21 04:31:29;;;;;;;;;;;22.10;28.00;;;;;;482095;246;1189;-74
2022/02/21 04:33:30;;;;;;;;;;;22.20;28.00;;;;;;482044;247;1032;-73
2022/02/21 04:35:32;;;;;;;;;;;22.10;28.00;;;;;;481963;247;1176;-73
2022/02/21 04:37:33;;;;;;;;;;;22.20;28.10;;;;;;481988;246;1095;-73
2022/02/21 04:39:34;;;;;;;;;;;22.10;28.00;;;;;;482126;246;971;-73
2022/02/21 04:41:36;;;;;;;;;;;22.10;28.10;;;;;;481893;247;1161;-73
2022/02/21 04:43:37;;;;;;;;;;;22.10;28.10;;;;;;482064;246;2126;-73
2022/02/21 04:45:38;;;;;;;;;;;22.10;28.10;;;;;;481992;247;1070;-73
2022/02/21 04:47:40;;;;;;;;;;;22.00;28.20;;;;;;482026;246;1151;-73
2022/02/21 04:49:41;;;;;;;;;;;22.10;28.20;;;;;;481978;247;1018;-73
2022/02/21 04:51:42;;;;;;;;;;;22.10;28.30;;;;;;482009;246;1217;-73
2022/02/21 04:53:44;;;;;;;;;;;22.00;28.30;;;;;;482037;247;1040;-73
2022/02/21 04:55:45;;;;;;;;;;;22.00;28.30;;;;;;482003;246;1141;-73
2022/02/21 04:57:47;;;;;;;;;;;22.00;28.40;;;;;;482019;246;1128;-73
2022/02/21 04:59:48;;;;;;;;;;;22.00;28.40;;;;;;481878;247;1185;-73
2022/02/21 05:01:49;;;;;;;;;;;22.00;28.40;;;;;;481963;246;1474;-73
2022/02/21 05:03:51;;;;;;;;;;;22.00;28.40;;;;;;481966;247;1065;-73
2022/02/21 05:05:52;;;;;;;;;;;22.00;28.40;;;;;;482073;246;1172;-73
2022/02/21 05:07:53;;;;;;;;;;;22.00;28.40;;;;;;481907;246;1068;-73
2022/02/21 05:09:55;;;;;;;;;;;22.00;28.40;;;;;;481936;246;1272;-74
2022/02/21 05:11:56;;;;;;;;;;;22.10;28.40;;;;;;481936;246;1160;-73
2022/02/21 05:13:57;;;;;;;;;;;22.00;28.50;;;;;;481912;246;1063;-73
2022/02/21 05:15:59;;;;;;;;;;;22.00;28.50;;;;;;481944;246;1232;-73
2022/02/21 05:18:00;;;;;;;;;;;22.10;28.50;;;;;;481926;246;1083;-73
2022/02/21 05:20:01;;;;;;;;;;;22.10;28.50;;;;;;481888;246;1083;-73
2022/02/21 05:22:03;;;;;;;;;;;22.10;28.50;;;;;;481742;246;2205;-73
2022/02/21 05:24:04;;;;;;;;;;;22.10;28.60;;;;;;481856;246;1327;-73
2022/02/21 05:26:05;;;;;;;;;;;22.10;28.50;;;;;;481888;246;1280;-73
2022/02/21 05:28:07;;;;;;;;;;;22.10;28.60;;;;;;481858;247;1138;-73
2022/02/21 05:30:08;;;;;;;;;;;22.10;28.60;;;;;;481924;246;1071;-73
2022/02/21 05:32:10;;;;;;;;;;;22.10;28.60;;;;;;481708;246;1056;-73
2022/02/21 05:34:11;;;;;;;;;;;22.10;28.60;;;;;;481950;246;1010;-73
2022/02/21 05:36:12;;;;;;;;;;;22.10;28.60;;;;;;481713;247;1156;-73
2022/02/21 05:38:13;;;;;;;;;;;22.10;28.60;;;;;;481788;247;1062;-73
2022/02/21 05:40:15;;;;;;;;;;;22.10;28.70;;;;;;481958;246;1070;-73
2022/02/21 05:42:16;;;;;;;;;;;22.10;28.70;;;;;;481688;246;2204;-73
2022/02/21 05:44:17;;;;;;;;;;;22.10;28.70;;;;;;481806;246;1067;-73
2022/02/21 05:46:19;;;;;;;;;;;22.10;28.70;;;;;;481861;247;1271;-73
2022/02/21 05:48:20;;;;;;;;;;;22.10;28.70;;;;;;481836;246;1053;-73
2022/02/21 05:50:21;;;;;;;;;;;22.20;28.70;;;;;;481938;246;1021;-73
2022/02/21 05:52:23;;;;;;;;;;;22.20;28.80;;;;;;490654;242;1138;-73
2022/02/21 05:54:24;;;;;;;;;;;22.10;28.90;;;;;;481758;247;1080;-73
2022/02/21 05:56:25;;;;;;;;;;;22.20;28.90;;;;;;481754;246;1185;-73
2022/02/21 05:58:27;;;;;;;;;;;22.20;28.90;;;;;;481751;246;1158;-73
2022/02/21 06:00:28;;;;;;;;;;;22.20;29.00;;;;;;481628;247;1418;-73
2022/02/21 06:02:30;;;;;;;;;;;22.10;29.00;;;;;;481690;246;2212;-73
2022/02/21 06:04:32;;;;;;;;;;;22.10;29.10;;;;;;481660;246;1023;-73
2022/02/21 06:06:32;;;;;;;;;;;22.10;29.10;;;;;;481691;246;1440;-73
2022/02/21 06:08:33;;;;;;;;;;;22.10;29.20;;;;;;481693;247;1124;-73
2022/02/21 06:10:35;;;;;;;;;;;22.10;29.20;;;;;;481861;246;1173;-73
2022/02/21 06:12:36;;;;;;;;;;;22.10;29.20;;;;;;481882;246;1159;-73
2022/02/21 06:14:37;;;;;;;;;;;22.10;29.20;;;;;;481772;247;1062;-73
2022/02/21 06:16:40;;;;;;;;;;;22.00;29.30;;;;;;481811;246;1220;-73
2022/02/21 06:18:40;;;;;;;;;;;22.00;29.30;;;;;;481620;246;1381;-73
2022/02/21 06:20:42;;;;;;;;;;;22.10;29.30;;;;;;481661;246;1194;-73
2022/02/21 06:22:43;;;;;;;;;;;22.00;29.20;;;;;;481771;246;2137;-73
2022/02/21 06:24:44;;;;;;;;;;;22.00;29.30;;;;;;481722;246;1031;-73
2022/02/21 06:26:46;;;;;;;;;;;22.00;29.20;;;;;;481670;246;1364;-73
2022/02/21 06:28:47;;;;;;;;;;;22.00;29.30;;;;;;481748;246;1282;-73
2022/02/21 06:30:48;;;;;;;;;;;22.00;29.20;;;;;;481684;246;1354;-73
2022/02/21 06:32:50;;;;;;;;;;;22.10;29.10;;;;;;481731;246;1013;-73
2022/02/21 06:34:51;;;;;;;;;;;22.20;29.00;;;;;;481579;247;964;-73
2022/02/21 06:36:52;;;;;;;;;;;22.40;28.90;;;;;;481511;247;1441;-73
2022/02/21 06:38:54;;;;;;;;;;;22.30;28.80;;;;;;481680;246;1060;-73
2022/02/21 06:40:55;;;;;;;;;;;22.30;28.80;;;;;;481696;246;1287;-73
2022/02/21 06:42:56;;;;;;;;;;;22.30;28.80;;;;;;481418;247;2181;-73
2022/02/21 06:44:58;;;;;;;;;;;22.40;28.70;;;;;;481528;246;1067;-73
2022/02/21 06:46:59;;;;;;;;;;;22.40;28.60;;;;;;481378;246;1087;-73
2022/02/21 06:49:00;;;;;;;;;;;22.40;28.60;;;;;;481497;246;1053;-73
2022/02/21 06:51:02;;;;;;;;;;;22.50;28.50;;;;;;481413;246;1538;-73
2022/02/21 06:53:03;;;;;;;;;;;22.40;28.50;;;;;;481466;246;1007;-73
2022/02/21 06:55:04;;;;;;;;;;;22.40;28.60;;;;;;481447;247;992;-74
2022/02/21 06:57:06;;;;;;;;;;;22.40;28.60;;;;;;481289;246;1139;-74
2022/02/21 06:59:07;;;;;;;;;;;22.40;28.50;;;;;;481431;246;1236;-73
2022/02/21 07:01:08;;;;;;;;;;;22.40;28.50;;;;;;481429;247;1203;-73
2022/02/21 07:03:10;;;;;;;;;;;22.40;28.50;;;;;;481545;245;2189;-73
2022/02/21 07:05:11;;;;;;;;;;;22.40;28.50;;;;;;481560;246;1121;-73
2022/02/21 07:07:12;;;;;;;;;;;22.50;28.30;;;;;;481393;247;1132;-73
2022/02/21 07:09:14;;;;;;;;;;;22.60;28.20;;;;;;481533;246;1005;-73
2022/02/21 07:11:15;;;;;;;;;;;22.70;28.20;;;;;;481477;246;1212;-73
2022/02/21 07:13:16;;;;;;;;;;;22.60;28.20;;;;;;481554;246;1141;-73
2022/02/21 07:15:17;;;;;;;;;;;22.60;28.10;;;;;;481561;246;1150;-73
2022/02/21 07:17:19;;;;;;;;;;;22.60;28.10;;;;;;481410;246;1446;-73
2022/02/21 07:19:20;;;;;;;;;;;22.60;28.10;;;;;;481612;246;1064;-73
2022/02/21 07:21:21;;;;;;;;;;;22.60;28.10;;;;;;481659;246;1204;-73
2022/02/21 07:23:23;;;;;;;;;;;22.60;28.00;;;;;;481514;246;2133;-73
2022/02/21 07:25:24;;;;;;;;;;;22.50;28.10;;;;;;481451;247;1018;-74
2022/02/21 07:27:25;;;;;;;;;;;22.40;28.20;;;;;;481510;246;1082;-74
2022/02/21 07:29:27;;;;;;;;;;;22.40;28.10;;;;;;481475;247;1177;-74
2022/02/21 07:31:28;;;;;;;;;;;22.30;28.10;;;;;;481294;246;1220;-73
2022/02/21 07:33:29;;;;;;;;;;;22.40;28.10;;;;;;481288;246;993;-73
2022/02/21 07:35:31;;;;;;;;;;;22.10;28.20;;;;;;481305;246;981;-73
2022/02/21 07:37:32;;;;;;;;;;;22.20;28.30;;;;;;481236;246;1073;-73
2022/02/21 07:39:33;;;;;;;;;;;22.20;28.20;;;;;;481345;246;1200;-73
2022/02/21 07:41:34;;;;;;;;;;;22.30;28.10;;;;;;481314;246;1432;-73
2022/02/21 07:43:36;;;;;;;;;;;22.30;28.00;;;;;;481388;246;2193;-73
2022/02/21 07:45:37;;;;;;;;;;;22.40;28.00;;;;;;481328;246;1039;-73
2022/02/21 07:47:38;;;;;;;;;;;22.50;27.90;;;;;;481427;246;1137;-73
2022/02/21 07:49:40;;;;;;;;;;;22.30;27.90;;;;;;481234;247;1059;-73
2022/02/21 07:51:41;;;;;;;;;;;22.40;27.90;;;;;;481131;246;1195;-74
2022/02/21 07:53:42;;;;;;;;;;;22.70;27.70;;;;;;481228;246;1091;-74
2022/02/21 07:55:44;;;;;;;;;;;22.70;27.50;;;;;;481174;246;1167;-74
2022/02/21 07:57:45;;;;;;;;;;;22.70;27.50;;;;;;481222;247;1074;-74
2022/02/21 07:59:46;;;;;;;;;;;22.70;27.50;;;;;;481367;246;1172;-74
2022/02/21 08:01:48;;;;;;;;;;;22.60;27.50;;;;;;481007;247;1356;-74
2022/02/21 08:03:49;;;;;;;;;;;22.50;27.60;;;;;;480844;246;2133;-74
2022/02/21 08:05:55;;;;;;;;;;;22.30;27.80;;;;;;481224;246;1124;-74
2022/02/21 08:07:52;;;;;;;;;;;22.30;27.80;;;;;;481178;246;1415;-74
2022/02/21 08:09:53;;;;;;;;;;;22.40;27.80;;;;;;481104;246;1101;-75
2022/02/21 08:11:55;;;;;;;;;;;21.50;28.20;;;;;;481247;247;1206;-73
2022/02/21 08:13:57;;;;;;;;;;;20.80;29.00;;;;;;481163;246;1153;-73
2022/02/21 08:15:57;;;;;;;;;;;20.50;29.40;;;;;;481060;247;1389;-73
2022/02/21 08:17:59;;;;;;;;;;;20.40;29.60;;;;;;481086;246;1205;-73
2022/02/21 08:20:00;;;;;;;;;;;20.40;29.60;;;;;;480966;247;1099;-73
2022/02/21 08:22:01;;;;;;;;;;;20.30;29.70;;;;;;481048;246;1294;-73
2022/02/21 08:24:03;;;;;;;;;;;20.20;29.70;;;;;;480940;246;2137;-73
2022/02/21 08:26:04;;;;;;;;;;;20.10;29.80;;;;;;481081;246;1350;-73
2022/02/21 08:28:05;;;;;;;;;;;19.90;30.00;;;;;;481410;246;1027;-73
2022/02/21 08:30:07;;;;;;;;;;;19.70;30.20;;;;;;481142;246;1205;-73
2022/02/21 08:32:08;;;;;;;;;;;19.40;30.50;;;;;;481002;247;1144;-72
2022/02/21 08:34:09;;;;;;;;;;;19.30;30.70;;;;;;480847;246;1109;-73
2022/02/21 08:36:11;;;;;;;;;;;19.30;30.80;;;;;;481106;246;1179;-72
2022/02/21 08:38:12;;;;;;;;;;;19.20;30.90;;;;;;481250;246;1066;-72
2022/02/21 08:40:13;;;;;;;;;;;19.10;31.00;;;;;;481238;247;1067;-72
2022/02/21 08:42:15;;;;;;;;;;;19.10;31.10;;;;;;481174;247;1207;-72
2022/02/21 08:44:16;;;;;;;;;;;19.00;31.20;;;;;;481250;246;2114;-72
2022/02/21 08:46:17;;;;;;;;;;;19.00;31.30;;;;;;481101;246;1369;-72
2022/02/21 08:48:18;;;;;;;;;;;19.00;31.30;;;;;;481233;246;1075;-72
2022/02/21 08:50:21;;;;;;;;;;;19.00;31.30;;;;;;481101;246;1134;-72
2022/02/21 08:52:21;;;;;;;;;;;18.90;31.40;;;;;;472923;251;1515;-72
2022/02/21 08:54:23;;;;;;;;;;;18.90;31.40;;;;;;481208;246;1072;-73
2022/02/21 08:56:24;;;;;;;;;;;18.80;31.50;;;;;;481083;246;1199;-72
2022/02/21 08:58:25;;;;;;;;;;;18.70;31.60;;;;;;472669;251;1519;-72
2022/02/21 09:00:26;;;;;;;;;;;18.70;31.70;;;;;;480907;246;1197;-72
2022/02/21 09:02:28;;;;;;;;;;;18.60;31.80;;;;;;480647;247;1207;-72
2022/02/21 09:04:29;;;;;;;;;;;18.60;31.80;;;;;;480812;246;2197;-72
2022/02/21 09:06:30;;;;;;;;;;;18.70;31.80;;;;;;481033;246;1218;-72
2022/02/21 09:08:32;;;;;;;;;;;18.80;31.60;;;;;;481345;246;1087;-73
2022/02/21 09:10:33;;;;;;;;;;;18.90;31.40;;;;;;481204;246;1122;-72
2022/02/21 09:12:34;;;;;;;;;;;19.00;31.20;;;;;;481382;246;1311;-72
2022/02/21 09:14:36;;;;;;;;;;;19.10;31.00;;;;;;481141;246;1170;-72
2022/02/21 09:16:37;;;;;;;;;;;19.30;30.90;;;;;;480946;247;1334;-72
2022/02/21 09:18:38;;;;;;;;;;;19.30;30.70;;;;;;480912;246;1093;-72
2022/02/21 09:20:40;;;;;;;;;;;19.40;30.70;;;;;;480873;247;1229;-72
2022/02/21 09:22:41;;;;;;;;;;;19.40;30.60;;;;;;481048;247;1338;-72
2022/02/21 09:24:42;;;;;;;;;;;19.30;30.50;;;;;;481075;246;2192;-72
2022/02/21 09:26:44;;;;;;;;;;;19.30;30.60;;;;;;481057;247;1099;-72
2022/02/21 09:28:45;;;;;;;;;;;19.20;30.70;;;;;;481175;247;1031;-72
2022/02/21 09:30:46;;;;;;;;;;;19.10;30.80;;;;;;481120;246;1426;-72
2022/02/21 09:32:49;;;;;;;;;;;19.10;30.90;;;;;;481288;246;1133;-72
2022/02/21 09:34:49;;;;;;;;;;;19.00;31.00;;;;;;481190;247;1355;-72
2022/02/21 09:36:51;;;;;;;;;;;18.90;31.00;;;;;;481156;246;1361;-72
2022/02/21 09:38:52;;;;;;;;;;;18.80;31.20;;;;;;481212;246;1075;-72
2022/02/21 09:40:56;;;;;;;;;;;18.70;31.20;;;;;;481106;247;1517;-72
2022/02/21 09:42:59;;;;;;;;;;;18.60;31.20;;;;;;481449;246;1284;-72
2022/02/21 09:44:56;;;;;;;;;;;18.60;31.30;;;;;;480830;247;2180;-72
2022/02/21 09:46:58;;;;;;;;;;;18.50;31.40;;;;;;481060;246;1340;-72
2022/02/21 09:48:59;;;;;;;;;;;18.50;31.40;;;;;;481068;246;1284;-72
2022/02/21 09:51:01;;;;;;;;;;;18.50;31.40;;;;;;481039;247;1557;-72
2022/02/21 09:53:04;;;;;;;;;;;18.60;31.40;;;;;;481004;246;1406;-72
2022/02/21 09:55:03;;;;;;;;;;;18.60;31.20;;;;;;480961;247;1786;-72
2022/02/21 09:57:04;;;;;;;;;;;18.50;31.20;;;;;;481164;246;1485;-73
2022/02/21 09:59:06;;;;;;;;;;;18.50;31.20;;;;;;481319;246;1042;-72
2022/02/21 10:01:07;;;;;;;;;;;18.50;31.20;;;;;;481072;246;1279;-73
2022/02/21 10:03:08;;;;;;;;;;;18.50;31.10;;;;;;481178;246;1173;-72
2022/02/21 10:05:10;;;;;;;;;;;18.50;31.20;;;;;;481136;247;2126;-72
2022/02/21 10:07:11;;;;;;;;;;;18.60;31.20;;;;;;480984;247;1184;-72
2022/02/21 10:09:14;;;;;;;;;;;18.50;31.10;;;;;;481094;246;1048;-72
2022/02/21 10:11:15;;;;;;;;;;;18.50;31.00;;;;;;480907;247;1355;-72
2022/02/21 10:13:15;;;;;;;;;;;18.60;31.00;;;;;;481062;247;1498;-72
2022/02/21 10:15:16;;;;;;;;;;;18.50;31.00;;;;;;480875;247;1179;-72
2022/02/21 10:17:18;;;;;;;;;;;18.60;30.90;;;;;;480910;246;1268;-72
2022/02/21 10:19:20;;;;;;;;;;;18.60;30.90;;;;;;481057;247;1108;-72
2022/02/21 10:21:22;;;;;;;;;;;18.60;30.80;;;;;;480992;246;1175;-72
2022/02/21 10:23:23;;;;;;;;;;;18.60;30.80;;;;;;481040;246;1313;-72
2022/02/21 10:25:24;;;;;;;;;;;18.60;30.70;;;;;;481098;246;2130;-72
2022/02/21 10:27:26;;;;;;;;;;;18.60;30.70;;;;;;481077;247;1251;-72
2022/02/21 10:29:27;;;;;;;;;;;18.60;30.70;;;;;;481066;246;1402;-72
2022/02/21 10:31:28;;;;;;;;;;;18.70;30.60;;;;;;481051;246;1317;-72
2022/02/21 10:33:29;;;;;;;;;;;18.60;30.60;;;;;;480925;246;1159;-72
2022/02/21 10:35:31;;;;;;;;;;;18.70;30.50;;;;;;480811;246;1293;-72
2022/02/21 10:37:32;;;;;;;;;;;18.70;30.50;;;;;;481114;247;1088;-73
2022/02/21 10:39:34;;;;;;;;;;;18.70;30.50;;;;;;481094;246;1111;-73
2022/02/21 10:41:35;;;;;;;;;;;18.70;30.50;;;;;;481035;247;1588;-72
2022/02/21 10:43:38;;;;;;;;;;;18.70;30.40;;;;;;481119;246;1556;-72
2022/02/21 10:45:38;;;;;;;;;;;18.70;30.40;;;;;;481006;246;2229;-72
2022/02/21 10:47:39;;;;;;;;;;;18.70;30.40;;;;;;480972;247;1389;-72
2022/02/21 10:49:40;;;;;;;;;;;18.70;30.40;;;;;;481171;246;1376;-72
2022/02/21 10:51:42;;;;;;;;;;;18.80;30.40;;;;;;481028;246;1211;-73
2022/02/21 10:53:44;;;;;;;;;;;18.70;30.30;;;;;;480906;247;1286;-73
2022/02/21 10:55:44;;;;;;;;;;;18.70;30.30;;;;;;481075;246;1376;-73
2022/02/21 10:57:47;;;;;;;;;;;18.70;30.30;;;;;;481192;247;1205;-73
2022/02/21 10:59:47;;;;;;;;;;;18.70;30.20;;;;;;481140;247;1608;-73
2022/02/21 11:01:48;;;;;;;;;;;18.80;30.20;;;;;;481243;246;1633;-73
2022/02/21 11:03:50;;;;;;;;;;;18.80;30.20;;;;;;481064;246;2187;-73
2022/02/21 11:05:51;;;;;;;;;;;18.80;30.20;;;;;;481002;247;1115;-72
2022/02/21 11:07:53;;;;;;;;;;;18.80;30.10;;;;;;481264;247;1155;-72
2022/02/21 11:09:56;;;;;;;;;;;18.80;30.10;;;;;;481196;246;1084;-72
2022/02/21 11:11:55;;;;;;;;;;;18.80;30.10;;;;;;481290;246;1976;-72
2022/02/21 11:13:57;;;;;;;;;;;18.80;30.00;;;;;;481036;247;1027;-72
2022/02/21 11:15:58;;;;;;;;;;;18.80;30.00;;;;;;481015;246;1266;-72
2022/02/21 11:18:00;;;;;;;;;;;18.80;30.00;;;;;;481014;246;1066;-72
2022/02/21 11:20:01;;;;;;;;;;;18.80;30.00;;;;;;481046;246;1018;-72
2022/02/21 11:22:03;;;;;;;;;;;18.80;29.90;;;;;;481146;246;1336;-73
2022/02/21 11:24:04;;;;;;;;;;;18.80;29.90;;;;;;481108;247;2200;-72
2022/02/21 11:26:05;;;;;;;;;;;18.80;29.90;;;;;;481122;247;1392;-72
2022/02/21 11:28:07;;;;;;;;;;;18.80;29.80;;;;;;481251;247;1057;-72
2022/02/21 11:30:08;;;;;;;;;;;18.80;29.80;;;;;;481139;246;1242;-72
2022/02/21 11:32:09;;;;;;;;;;;18.80;29.80;;;;;;481085;246;1136;-72
2022/02/21 11:34:11;;;;;;;;;;;18.80;29.80;;;;;;481126;247;1028;-72
2022/02/21 11:36:12;;;;;;;;;;;18.90;29.80;;;;;;481075;246;1145;-72
2022/02/21 11:38:13;;;;;;;;;;;18.90;29.80;;;;;;481104;247;1105;-72
2022/02/21 11:40:14;;;;;;;;;;;18.90;29.80;;;;;;481110;246;1031;-73
2022/02/21 11:42:18;;;;;;;;;;;18.90;29.80;;;;;;481105;246;1101;-72
2022/02/21 11:44:18;;;;;;;;;;;18.90;29.80;;;;;;481211;247;2209;-72
2022/02/21 11:46:19;;;;;;;;;;;18.90;29.80;;;;;;481037;246;1233;-72
2022/02/21 11:48:20;;;;;;;;;;;18.90;29.80;;;;;;480880;246;1056;-72
2022/02/21 11:50:24;;;;;;;;;;;18.90;29.80;;;;;;480912;247;1025;-72
2022/02/21 11:52:23;;;;;;;;;;;18.90;29.80;;;;;;480973;247;1375;-72
2022/02/21 11:54:24;;;;;;;;;;;18.90;29.80;;;;;;481319;246;1255;-72
2022/02/21 11:56:26;;;;;;;;;;;18.90;29.80;;;;;;481046;246;1120;-72